createdAt,value
2019-05-21T00:00:10.943Z,23.66
2019-05-21T00:00:36.135Z,23.66
2019-05-21T00:01:00.817Z,23.67
2019-05-21T00:01:26.091Z,23.65
2019-05-21T00:01:51.331Z,23.65
2019-05-21T00:02:16.589Z,23.65
2019-05-21T00:02:41.254Z,23.65
2019-05-21T00:03:06.490Z,23.64
2019-05-21T00:03:31.714Z,23.64
2019-05-21T00:03:56.910Z,23.64
2019-05-21T00:04:28.380Z,23.62
2019-05-21T00:04:48.468Z,23.63
2019-05-21T00:05:13.709Z,23.62
2019-05-21T00:05:38.946Z,23.62
2019-05-21T00:06:04.194Z,23.63
2019-05-21T00:06:29.472Z,23.63
2019-05-21T00:06:54.101Z,23.62
2019-05-21T00:07:19.378Z,23.63
2019-05-21T00:07:44.578Z,23.62
2019-05-21T00:08:09.820Z,23.62
2019-05-21T00:08:34.489Z,23.61
2019-05-21T00:08:59.704Z,23.62
2019-05-21T00:09:24.979Z,23.62
2019-05-21T00:09:50.205Z,23.62
2019-05-21T00:10:15.444Z,23.61
2019-05-21T00:10:40.086Z,23.61
2019-05-21T00:11:05.280Z,23.61
2019-05-21T00:11:30.489Z,23.61
2019-05-21T00:11:55.692Z,23.61
2019-05-21T00:12:20.372Z,23.61
2019-05-21T00:12:45.596Z,23.61
2019-05-21T00:13:10.784Z,23.61
2019-05-21T00:13:36.079Z,23.61
2019-05-21T00:14:01.293Z,23.60
2019-05-21T00:14:26.038Z,23.60
2019-05-21T00:14:51.278Z,23.61
2019-05-21T00:15:16.512Z,23.61
2019-05-21T00:15:42.076Z,23.60
2019-05-21T00:16:06.734Z,23.60
2019-05-21T00:16:32.027Z,23.60
2019-05-21T00:16:57.001Z,23.61
2019-05-21T00:17:22.208Z,23.61
2019-05-21T00:17:47.525Z,23.60
2019-05-21T00:18:12.218Z,23.60
2019-05-21T00:18:37.475Z,23.60
2019-05-21T00:19:02.688Z,23.60
2019-05-21T00:19:27.941Z,23.59
2019-05-21T00:19:53.162Z,23.60
2019-05-21T00:20:17.840Z,23.59
2019-05-21T00:20:43.048Z,23.59
2019-05-21T00:21:08.250Z,23.58
2019-05-21T00:21:33.465Z,23.58
2019-05-21T00:21:58.678Z,23.58
2019-05-21T00:22:23.397Z,23.58
2019-05-21T00:22:48.642Z,23.58
2019-05-21T00:23:13.996Z,23.58
2019-05-21T00:23:39.204Z,23.58
2019-05-21T00:24:04.476Z,23.59
2019-05-21T00:24:29.182Z,23.57
2019-05-21T00:24:54.533Z,23.57
2019-05-21T00:25:20.014Z,23.57
2019-05-21T00:25:45.210Z,23.56
2019-05-21T00:26:09.888Z,23.55
2019-05-21T00:26:35.093Z,23.57
2019-05-21T00:27:00.326Z,23.57
2019-05-21T00:27:25.518Z,23.57
2019-05-21T00:27:50.737Z,23.56
2019-05-21T00:28:37.965Z,23.57
2019-05-21T00:29:39.895Z,23.57
2019-05-21T00:30:41.249Z,23.57
2019-05-21T00:31:44.090Z,23.54
2019-05-21T00:32:45.995Z,23.50
2019-05-21T00:33:48.033Z,23.46
2019-05-21T00:34:49.573Z,23.43
2019-05-21T00:35:53.497Z,23.37
2019-05-21T00:36:56.797Z,23.32
2019-05-21T00:37:58.819Z,23.28
2019-05-21T00:39:00.871Z,23.24
2019-05-21T00:40:03.435Z,23.21
2019-05-21T00:41:05.400Z,23.18
2019-05-21T00:42:01.785Z,23.15
2019-05-21T00:42:35.766Z,23.12
2019-05-21T00:43:00.416Z,23.10
2019-05-21T00:43:37.660Z,23.08
2019-05-21T00:44:02.845Z,23.08
2019-05-21T00:44:31.292Z,23.08
2019-05-21T00:44:54.959Z,23.08
2019-05-21T00:45:20.138Z,23.08
2019-05-21T00:45:45.354Z,23.08
2019-05-21T00:46:10.748Z,23.09
2019-05-21T00:46:35.443Z,23.10
2019-05-21T00:47:00.927Z,23.11
2019-05-21T00:47:26.304Z,23.13
2019-05-21T00:47:51.537Z,23.14
2019-05-21T00:48:16.201Z,23.16
2019-05-21T00:48:41.442Z,23.17
2019-05-21T00:49:07.070Z,23.18
2019-05-21T00:49:32.443Z,23.20
2019-05-21T00:49:57.678Z,23.21
2019-05-21T00:50:22.344Z,23.23
2019-05-21T00:50:47.629Z,23.24
2019-05-21T00:51:12.948Z,23.25
2019-05-21T00:51:38.168Z,23.27
2019-05-21T00:52:08.809Z,23.26
2019-05-21T00:52:29.815Z,23.29
2019-05-21T00:52:55.035Z,23.28
2019-05-21T00:53:20.260Z,23.31
2019-05-21T00:53:45.462Z,23.32
2019-05-21T00:54:10.696Z,23.33
2019-05-21T00:54:35.678Z,23.33
2019-05-21T00:56:03.657Z,23.40
2019-05-21T00:56:28.309Z,23.37
2019-05-21T00:56:53.547Z,23.37
2019-05-21T00:57:18.848Z,23.38
2019-05-21T00:57:44.122Z,23.39
2019-05-21T00:58:09.314Z,23.40
2019-05-21T00:58:33.971Z,23.39
2019-05-21T00:58:59.165Z,23.40
2019-05-21T00:59:24.382Z,23.40
2019-05-21T00:59:49.605Z,23.40
2019-05-21T01:00:15.657Z,23.40
2019-05-21T01:00:40.985Z,23.40
2019-05-21T01:01:08.509Z,23.41
2019-05-21T01:01:33.757Z,23.41
2019-05-21T01:01:58.421Z,23.41
2019-05-21T01:02:23.643Z,23.42
2019-05-21T01:02:48.858Z,23.41
2019-05-21T01:03:14.690Z,23.43
2019-05-21T01:03:39.333Z,23.42
2019-05-21T01:04:04.561Z,23.41
2019-05-21T01:04:29.836Z,23.42
2019-05-21T01:05:00.653Z,23.42
2019-05-21T01:05:21.601Z,23.42
2019-05-21T01:05:46.825Z,23.43
2019-05-21T01:06:12.057Z,23.43
2019-05-21T01:06:37.239Z,23.43
2019-05-21T01:07:02.622Z,23.41
2019-05-21T01:07:27.625Z,23.42
2019-05-21T01:07:52.836Z,23.43
2019-05-21T01:08:18.234Z,23.42
2019-05-21T01:08:44.086Z,23.43
2019-05-21T01:09:08.908Z,23.42
2019-05-21T01:09:34.155Z,23.42
2019-05-21T01:09:59.922Z,23.42
2019-05-21T01:10:25.385Z,23.43
2019-05-21T01:10:56.292Z,23.42
2019-05-21T01:11:21.487Z,23.42
2019-05-21T01:11:46.819Z,23.42
2019-05-21T01:12:12.147Z,23.43
2019-05-21T01:12:37.333Z,23.42
2019-05-21T01:13:01.961Z,23.42
2019-05-21T01:13:27.190Z,23.42
2019-05-21T01:13:52.390Z,23.42
2019-05-21T01:14:17.795Z,23.43
2019-05-21T01:14:42.445Z,23.42
2019-05-21T01:15:07.861Z,23.41
2019-05-21T01:15:33.575Z,23.42
2019-05-21T01:15:58.773Z,23.43
2019-05-21T01:16:23.440Z,23.42
2019-05-21T01:16:48.680Z,23.42
2019-05-21T01:17:14.718Z,23.42
2019-05-21T01:17:39.899Z,23.43
2019-05-21T01:18:04.557Z,23.42
2019-05-21T01:18:30.129Z,23.43
2019-05-21T01:18:55.405Z,23.42
2019-05-21T01:19:20.599Z,23.43
2019-05-21T01:19:45.520Z,23.42
2019-05-21T01:20:10.741Z,23.43
2019-05-21T01:20:35.988Z,23.43
2019-05-21T01:21:01.169Z,23.43
2019-05-21T01:21:26.370Z,23.42
2019-05-21T01:21:51.056Z,23.43
2019-05-21T01:22:16.367Z,23.43
2019-05-21T01:22:41.601Z,23.43
2019-05-21T01:23:06.896Z,23.42
2019-05-21T01:23:31.527Z,23.42
2019-05-21T01:23:56.793Z,23.42
2019-05-21T01:24:22.029Z,23.41
2019-05-21T01:24:47.201Z,23.41
2019-05-21T01:25:12.691Z,23.41
2019-05-21T01:25:37.541Z,23.42
2019-05-21T01:26:02.782Z,23.42
2019-05-21T01:26:27.987Z,23.43
2019-05-21T01:26:53.198Z,23.42
2019-05-21T01:27:18.423Z,23.42
2019-05-21T01:27:43.093Z,23.43
2019-05-21T01:28:08.366Z,23.43
2019-05-21T01:28:33.846Z,23.42
2019-05-21T01:28:59.066Z,23.42
2019-05-21T01:29:23.781Z,23.42
2019-05-21T01:29:48.979Z,23.41
2019-05-21T01:30:14.794Z,23.42
2019-05-21T01:30:40.015Z,23.42
2019-05-21T01:31:05.244Z,23.42
2019-05-21T01:31:30.450Z,23.42
2019-05-21T01:31:55.690Z,23.42
2019-05-21T01:32:20.923Z,23.41
2019-05-21T01:32:45.751Z,23.41
2019-05-21T01:33:10.959Z,23.41
2019-05-21T01:33:36.175Z,23.41
2019-05-21T01:34:01.843Z,23.41
2019-05-21T01:34:26.546Z,23.40
2019-05-21T01:34:51.894Z,23.41
2019-05-21T01:35:17.696Z,23.39
2019-05-21T01:35:43.257Z,23.40
2019-05-21T01:36:07.926Z,23.40
2019-05-21T01:36:33.150Z,23.39
2019-05-21T01:36:58.427Z,23.39
2019-05-21T01:37:23.687Z,23.39
2019-05-21T01:37:48.314Z,23.39
2019-05-21T01:38:13.518Z,23.39
2019-05-21T01:38:39.496Z,23.39
2019-05-21T01:39:05.750Z,23.40
2019-05-21T01:39:30.426Z,23.40
2019-05-21T01:39:56.115Z,23.39
2019-05-21T01:40:21.359Z,23.39
2019-05-21T01:40:46.617Z,23.39
2019-05-21T01:41:11.282Z,23.39
2019-05-21T01:41:36.661Z,23.39
2019-05-21T01:42:01.967Z,23.38
2019-05-21T01:42:27.218Z,23.39
2019-05-21T01:42:52.478Z,23.39
2019-05-21T01:43:17.461Z,23.38
2019-05-21T01:43:42.672Z,23.38
2019-05-21T01:44:07.872Z,23.38
2019-05-21T01:44:33.083Z,23.38
2019-05-21T01:44:58.315Z,23.38
2019-05-21T01:45:23.076Z,23.38
2019-05-21T01:45:48.282Z,23.38
2019-05-21T01:46:13.543Z,23.39
2019-05-21T01:46:39.301Z,23.38
2019-05-21T01:47:04.202Z,23.37
2019-05-21T01:47:29.467Z,23.37
2019-05-21T01:47:54.668Z,23.36
2019-05-21T01:48:19.928Z,23.37
2019-05-21T01:48:45.158Z,23.37
2019-05-21T01:49:09.809Z,23.37
2019-05-21T01:49:35.300Z,23.37
2019-05-21T01:50:00.570Z,23.37
2019-05-21T01:50:25.885Z,23.36
2019-05-21T01:50:50.574Z,23.37
2019-05-21T01:51:16.009Z,23.37
2019-05-21T01:51:41.320Z,23.36
2019-05-21T01:52:06.697Z,23.37
2019-05-21T01:52:31.381Z,23.36
2019-05-21T01:52:56.688Z,23.36
2019-05-21T01:53:22.574Z,23.37
2019-05-21T01:53:47.827Z,23.36
2019-05-21T01:54:12.499Z,23.36
2019-05-21T01:54:38.538Z,23.35
2019-05-21T01:55:03.792Z,23.36
2019-05-21T01:55:29.105Z,23.35
2019-05-21T01:55:53.806Z,23.34
2019-05-21T01:56:19.499Z,23.35
2019-05-21T01:56:44.872Z,23.35
2019-05-21T01:57:11.560Z,23.34
2019-05-21T01:57:36.293Z,23.34
2019-05-21T01:58:01.300Z,23.33
2019-05-21T01:58:26.484Z,23.34
2019-05-21T01:58:51.754Z,23.34
2019-05-21T01:59:16.892Z,23.33
2019-05-21T01:59:41.564Z,23.33
2019-05-21T02:00:07.576Z,23.33
2019-05-21T02:00:32.760Z,23.33
2019-05-21T02:00:58.181Z,23.33
2019-05-21T02:01:22.892Z,23.33
2019-05-21T02:01:48.090Z,23.33
2019-05-21T02:02:13.294Z,23.32
2019-05-21T02:02:38.560Z,23.33
2019-05-21T02:03:05.362Z,23.32
2019-05-21T02:03:30.599Z,23.31
2019-05-21T02:03:55.783Z,23.32
2019-05-21T02:04:20.987Z,23.31
2019-05-21T02:04:46.262Z,23.31
2019-05-21T02:05:10.913Z,23.32
2019-05-21T02:05:36.420Z,23.31
2019-05-21T02:06:01.742Z,23.31
2019-05-21T02:06:26.941Z,23.30
2019-05-21T02:06:51.667Z,23.31
2019-05-21T02:07:16.884Z,23.30
2019-05-21T02:07:42.137Z,23.30
2019-05-21T02:08:07.413Z,23.29
2019-05-21T02:08:32.647Z,23.30
2019-05-21T02:08:57.411Z,23.30
2019-05-21T02:09:22.685Z,23.29
2019-05-21T02:10:00.080Z,23.30
2019-05-21T02:10:26.298Z,23.31
2019-05-21T02:10:50.984Z,23.29
2019-05-21T02:11:16.224Z,23.29
2019-05-21T02:11:41.476Z,23.30
2019-05-21T02:12:06.692Z,23.28
2019-05-21T02:12:31.330Z,23.28
2019-05-21T02:12:56.627Z,23.27
2019-05-21T02:13:22.443Z,23.28
2019-05-21T02:13:47.722Z,23.27
2019-05-21T02:14:12.539Z,23.28
2019-05-21T02:14:37.773Z,23.28
2019-05-21T02:15:03.017Z,23.26
2019-05-21T02:15:28.301Z,23.27
2019-05-21T02:15:53.558Z,23.27
2019-05-21T02:16:18.207Z,23.26
2019-05-21T02:16:43.527Z,23.27
2019-05-21T02:17:08.725Z,23.27
2019-05-21T02:17:34.509Z,23.26
2019-05-21T02:17:59.843Z,23.26
2019-05-21T02:18:24.647Z,23.26
2019-05-21T02:18:49.889Z,23.26
2019-05-21T02:19:15.378Z,23.27
2019-05-21T02:19:40.850Z,23.26
2019-05-21T02:20:06.072Z,23.26
2019-05-21T02:20:31.292Z,23.27
2019-05-21T02:20:56.552Z,23.27
2019-05-21T02:21:21.770Z,23.26
2019-05-21T02:21:46.437Z,23.26
2019-05-21T02:22:11.620Z,23.25
2019-05-21T02:22:36.802Z,23.25
2019-05-21T02:23:02.068Z,23.25
2019-05-21T02:23:27.303Z,23.25
2019-05-21T02:23:51.964Z,23.26
2019-05-21T02:24:17.174Z,23.25
2019-05-21T02:24:42.349Z,23.26
2019-05-21T02:25:08.109Z,23.25
2019-05-21T02:25:32.816Z,23.24
2019-05-21T02:25:58.054Z,23.26
2019-05-21T02:26:23.254Z,23.24
2019-05-21T02:26:48.474Z,23.24
2019-05-21T02:27:13.677Z,23.24
2019-05-21T02:27:38.319Z,23.25
2019-05-21T02:28:03.552Z,23.24
2019-05-21T02:28:28.807Z,23.24
2019-05-21T02:28:54.029Z,23.24
2019-05-21T02:29:19.258Z,23.24
2019-05-21T02:29:43.910Z,23.23
2019-05-21T02:30:10.193Z,23.23
2019-05-21T02:30:35.454Z,23.23
2019-05-21T02:31:00.644Z,23.23
2019-05-21T02:31:25.306Z,23.23
2019-05-21T02:31:50.289Z,23.23
2019-05-21T02:32:15.483Z,23.23
2019-05-21T02:32:40.781Z,23.23
2019-05-21T02:33:06.043Z,23.23
2019-05-21T02:33:30.713Z,23.22
2019-05-21T02:33:55.945Z,23.23
2019-05-21T02:34:21.145Z,23.23
2019-05-21T02:34:46.361Z,23.21
2019-05-21T02:35:11.717Z,23.21
2019-05-21T02:35:52.855Z,23.21
2019-05-21T02:36:03.293Z,23.22
2019-05-21T02:36:28.516Z,23.22
2019-05-21T02:36:53.736Z,23.23
2019-05-21T02:37:18.415Z,23.21
2019-05-21T02:37:45.512Z,23.22
2019-05-21T02:38:10.738Z,23.21
2019-05-21T02:38:35.996Z,23.21
2019-05-21T02:39:00.794Z,23.21
2019-05-21T02:39:27.023Z,23.20
2019-05-21T02:39:52.301Z,23.20
2019-05-21T02:40:17.589Z,23.19
2019-05-21T02:40:42.236Z,23.19
2019-05-21T02:41:07.422Z,23.19
2019-05-21T02:41:32.706Z,23.19
2019-05-21T02:41:57.903Z,23.19
2019-05-21T02:42:23.111Z,23.18
2019-05-21T02:42:47.782Z,23.18
2019-05-21T02:43:13.136Z,23.19
2019-05-21T02:43:38.324Z,23.18
2019-05-21T02:44:03.541Z,23.18
2019-05-21T02:44:28.230Z,23.19
2019-05-21T02:44:54.554Z,23.19
2019-05-21T02:45:20.022Z,23.19
2019-05-21T02:45:45.229Z,23.18
2019-05-21T02:46:09.886Z,23.18
2019-05-21T02:46:35.081Z,23.18
2019-05-21T02:47:00.267Z,23.18
2019-05-21T02:47:25.472Z,23.18
2019-05-21T02:47:50.693Z,23.17
2019-05-21T02:48:15.383Z,23.17
2019-05-21T02:48:40.614Z,23.18
2019-05-21T02:49:05.892Z,23.18
2019-05-21T02:49:31.116Z,23.18
2019-05-21T02:49:56.334Z,23.18
2019-05-21T02:50:20.985Z,23.18
2019-05-21T02:50:46.438Z,23.18
2019-05-21T02:51:11.690Z,23.17
2019-05-21T02:51:36.926Z,23.17
2019-05-21T02:52:01.607Z,23.17
2019-05-21T02:52:26.832Z,23.17
2019-05-21T02:52:52.084Z,23.17
2019-05-21T02:53:17.412Z,23.17
2019-05-21T02:53:42.688Z,23.16
2019-05-21T02:54:07.383Z,23.17
2019-05-21T02:54:41.186Z,23.17
2019-05-21T02:54:59.476Z,23.17
2019-05-21T02:55:24.701Z,23.16
2019-05-21T02:55:49.397Z,23.15
2019-05-21T02:56:14.945Z,23.15
2019-05-21T02:56:40.162Z,23.14
2019-05-21T02:57:05.351Z,23.14
2019-05-21T02:57:40.528Z,23.14
2019-05-21T02:58:05.756Z,23.14
2019-05-21T02:58:31.001Z,23.14
2019-05-21T02:58:56.182Z,23.15
2019-05-21T02:59:21.379Z,23.15
2019-05-21T02:59:48.280Z,23.14
2019-05-21T03:00:38.610Z,23.13
2019-05-21T03:01:02.640Z,23.13
2019-05-21T03:01:28.966Z,23.12
2019-05-21T03:01:55.250Z,23.13
2019-05-21T03:02:33.489Z,23.12
2019-05-21T03:03:00.294Z,23.11
2019-05-21T03:03:26.619Z,23.11
2019-05-21T03:03:51.877Z,23.11
2019-05-21T03:04:17.087Z,23.11
2019-05-21T03:04:42.310Z,23.11
2019-05-21T03:05:07.969Z,23.11
2019-05-21T03:05:32.619Z,23.09
2019-05-21T03:06:12.146Z,23.10
2019-05-21T03:06:24.583Z,23.09
2019-05-21T03:06:49.792Z,23.09
2019-05-21T03:07:17.640Z,23.10
2019-05-21T03:07:42.936Z,23.09
2019-05-21T03:08:08.138Z,23.10
2019-05-21T03:08:33.353Z,23.08
2019-05-21T03:08:58.592Z,23.08
2019-05-21T03:09:23.257Z,23.09
2019-05-21T03:09:49.675Z,23.09
2019-05-21T03:10:15.338Z,23.10
2019-05-21T03:10:40.562Z,23.10
2019-05-21T03:11:05.236Z,23.09
2019-05-21T03:11:30.466Z,23.10
2019-05-21T03:11:55.667Z,23.09
2019-05-21T03:12:20.874Z,23.10
2019-05-21T03:12:46.074Z,23.09
2019-05-21T03:13:10.859Z,23.09
2019-05-21T03:13:36.094Z,23.08
2019-05-21T03:14:01.332Z,23.09
2019-05-21T03:14:26.556Z,23.09
2019-05-21T03:14:51.297Z,23.09
2019-05-21T03:15:16.490Z,23.10
2019-05-21T03:15:41.714Z,23.10
2019-05-21T03:16:06.904Z,23.10
2019-05-21T03:16:32.144Z,23.11
2019-05-21T03:16:56.850Z,23.10
2019-05-21T03:17:22.015Z,23.11
2019-05-21T03:17:47.246Z,23.11
2019-05-21T03:18:12.522Z,23.10
2019-05-21T03:18:37.714Z,23.11
2019-05-21T03:19:02.409Z,23.11
2019-05-21T03:19:27.735Z,23.10
2019-05-21T03:19:53.036Z,23.10
2019-05-21T03:20:18.243Z,23.10
2019-05-21T03:20:44.167Z,23.10
2019-05-21T03:21:08.859Z,23.11
2019-05-21T03:21:34.086Z,23.11
2019-05-21T03:21:59.302Z,23.10
2019-05-21T03:22:24.526Z,23.11
2019-05-21T03:22:49.201Z,23.12
2019-05-21T03:23:15.461Z,23.12
2019-05-21T03:23:40.667Z,23.13
2019-05-21T03:24:05.895Z,23.13
2019-05-21T03:24:30.537Z,23.12
2019-05-21T03:24:55.741Z,23.13
2019-05-21T03:25:20.950Z,23.12
2019-05-21T03:25:46.169Z,23.13
2019-05-21T03:26:11.397Z,23.12
2019-05-21T03:26:36.026Z,23.11
2019-05-21T03:27:01.547Z,23.12
2019-05-21T03:27:26.837Z,23.12
2019-05-21T03:27:52.060Z,23.11
2019-05-21T03:28:16.717Z,23.12
2019-05-21T03:28:42.093Z,23.11
2019-05-21T03:29:07.391Z,23.12
2019-05-21T03:29:32.598Z,23.11
2019-05-21T03:29:57.257Z,23.12
2019-05-21T03:30:22.473Z,23.11
2019-05-21T03:30:47.667Z,23.12
2019-05-21T03:31:13.006Z,23.12
2019-05-21T03:31:38.312Z,23.11
2019-05-21T03:32:02.936Z,23.12
2019-05-21T03:32:28.147Z,23.12
2019-05-21T03:32:53.637Z,23.12
2019-05-21T03:33:19.223Z,23.11
2019-05-21T03:33:43.894Z,23.12
2019-05-21T03:34:09.176Z,23.11
2019-05-21T03:34:34.418Z,23.11
2019-05-21T03:34:59.449Z,23.10
2019-05-21T03:35:24.722Z,23.11
2019-05-21T03:35:49.623Z,23.10
2019-05-21T03:36:31.886Z,23.10
2019-05-21T03:36:42.342Z,23.10
2019-05-21T03:37:07.533Z,22.97
2019-05-21T03:37:32.206Z,22.97
2019-05-21T03:37:57.412Z,23.10
2019-05-21T03:38:22.735Z,23.10
2019-05-21T03:38:47.946Z,23.10
2019-05-21T03:39:13.209Z,23.08
2019-05-21T03:39:37.874Z,23.08
2019-05-21T03:40:03.086Z,23.08
2019-05-21T03:40:28.328Z,23.08
2019-05-21T03:40:53.612Z,23.07
2019-05-21T03:41:18.295Z,23.08
2019-05-21T03:41:43.724Z,23.07
2019-05-21T03:42:08.942Z,23.07
2019-05-21T03:42:34.152Z,23.07
2019-05-21T03:42:59.441Z,23.07
2019-05-21T03:43:24.084Z,23.07
2019-05-21T03:43:49.381Z,23.06
2019-05-21T03:44:15.406Z,23.06
2019-05-21T03:44:58.267Z,23.06
2019-05-21T03:45:08.196Z,23.07
2019-05-21T03:45:33.836Z,23.06
2019-05-21T03:45:59.054Z,23.06
2019-05-21T03:46:24.247Z,23.05
2019-05-21T03:46:48.970Z,23.06
2019-05-21T03:47:14.246Z,23.06
2019-05-21T03:47:39.448Z,23.05
2019-05-21T03:48:04.705Z,23.07
2019-05-21T03:48:29.338Z,23.05
2019-05-21T03:48:54.558Z,23.06
2019-05-21T03:49:19.810Z,23.06
2019-05-21T03:49:45.204Z,23.06
2019-05-21T03:50:10.389Z,23.06
2019-05-21T03:50:35.020Z,23.06
2019-05-21T03:51:00.272Z,23.06
2019-05-21T03:51:25.632Z,23.05
2019-05-21T03:51:50.856Z,23.04
2019-05-21T03:52:15.539Z,23.05
2019-05-21T03:52:40.756Z,23.05
2019-05-21T03:53:06.018Z,23.05
2019-05-21T03:53:31.207Z,23.05
2019-05-21T03:53:56.416Z,23.04
2019-05-21T03:54:21.166Z,23.05
2019-05-21T03:54:46.435Z,23.05
2019-05-21T03:55:11.666Z,23.05
2019-05-21T03:55:36.880Z,23.05
2019-05-21T03:56:01.520Z,23.05
2019-05-21T03:56:26.741Z,23.05
2019-05-21T03:56:52.009Z,23.05
2019-05-21T03:57:17.219Z,23.06
2019-05-21T03:57:42.447Z,23.05
2019-05-21T03:58:07.110Z,23.05
2019-05-21T03:58:32.310Z,23.04
2019-05-21T03:58:57.521Z,23.05
2019-05-21T03:59:22.844Z,23.03
2019-05-21T03:59:47.489Z,23.03
2019-05-21T04:00:12.732Z,23.03
2019-05-21T04:00:37.952Z,23.03
2019-05-21T04:01:03.229Z,23.03
2019-05-21T04:01:28.465Z,23.03
2019-05-21T04:01:53.141Z,23.03
2019-05-21T04:02:18.418Z,23.03
2019-05-21T04:02:43.623Z,23.03
2019-05-21T04:03:08.832Z,23.03
2019-05-21T04:03:33.482Z,23.03
2019-05-21T04:03:58.711Z,23.03
2019-05-21T04:04:23.978Z,23.03
2019-05-21T04:04:49.286Z,23.03
2019-05-21T04:05:25.131Z,23.03
2019-05-21T04:05:50.334Z,23.03
2019-05-21T04:06:15.537Z,23.03
2019-05-21T04:06:51.481Z,23.03
2019-05-21T04:07:07.370Z,23.03
2019-05-21T04:07:32.570Z,23.01
2019-05-21T04:07:57.775Z,23.03
2019-05-21T04:08:23.005Z,23.01
2019-05-21T04:08:48.229Z,23.01
2019-05-21T04:09:13.875Z,23.02
2019-05-21T04:09:39.295Z,23.02
2019-05-21T04:10:06.772Z,23.01
2019-05-21T04:10:31.968Z,23.01
2019-05-21T04:10:56.618Z,23.02
2019-05-21T04:11:21.897Z,23.01
2019-05-21T04:11:47.113Z,23.01
2019-05-21T04:12:12.328Z,23.01
2019-05-21T04:12:37.670Z,23.00
2019-05-21T04:13:08.981Z,23.01
2019-05-21T04:13:34.576Z,23.00
2019-05-21T04:13:59.779Z,23.00
2019-05-21T04:14:38.371Z,23.00
2019-05-21T04:15:16.795Z,23.00
2019-05-21T04:15:45.977Z,22.99
2019-05-21T04:16:18.024Z,22.99
2019-05-21T04:16:44.354Z,22.98
2019-05-21T04:17:16.388Z,22.99
2019-05-21T04:17:42.669Z,22.98
2019-05-21T04:18:14.831Z,22.97
2019-05-21T04:18:41.073Z,22.96
2019-05-21T04:19:07.370Z,22.96
2019-05-21T04:19:33.649Z,22.95
2019-05-21T04:19:58.871Z,22.95
2019-05-21T04:20:24.114Z,22.95
2019-05-21T04:20:49.339Z,22.96
2019-05-21T04:21:14.546Z,22.95
2019-05-21T04:21:39.193Z,22.94
2019-05-21T04:22:04.208Z,22.94
2019-05-21T04:22:29.370Z,22.93
2019-05-21T04:22:54.585Z,22.93
2019-05-21T04:23:19.795Z,22.94
2019-05-21T04:23:44.461Z,22.94
2019-05-21T04:24:09.835Z,22.95
2019-05-21T04:24:35.144Z,22.95
2019-05-21T04:25:00.327Z,22.96
2019-05-21T04:25:25.628Z,22.97
2019-05-21T04:25:50.273Z,22.96
2019-05-21T04:26:15.514Z,22.97
2019-05-21T04:26:40.769Z,22.97
2019-05-21T04:27:05.962Z,22.97
2019-05-21T04:27:31.178Z,22.98
2019-05-21T04:27:56.490Z,22.98
2019-05-21T04:28:21.892Z,22.99
2019-05-21T04:28:47.187Z,22.99
2019-05-21T04:29:12.416Z,22.98
2019-05-21T04:29:37.085Z,22.99
2019-05-21T04:30:02.304Z,23.00
2019-05-21T04:30:27.544Z,23.00
2019-05-21T04:30:52.830Z,22.99
2019-05-21T04:31:17.470Z,22.99
2019-05-21T04:31:42.843Z,23.00
2019-05-21T04:32:08.052Z,23.00
2019-05-21T04:32:33.240Z,23.00
2019-05-21T04:32:58.456Z,23.01
2019-05-21T04:33:23.110Z,23.01
2019-05-21T04:33:48.320Z,23.01
2019-05-21T04:34:14.450Z,23.01
2019-05-21T04:34:39.710Z,23.01
2019-05-21T04:35:05.797Z,23.03
2019-05-21T04:35:31.012Z,23.03
2019-05-21T04:35:56.202Z,23.03
2019-05-21T04:36:21.406Z,23.03
2019-05-21T04:36:46.617Z,23.02
2019-05-21T04:37:12.105Z,23.02
2019-05-21T04:37:37.756Z,23.03
2019-05-21T04:38:02.999Z,23.03
2019-05-21T04:38:28.297Z,23.03
2019-05-21T04:38:52.946Z,23.03
2019-05-21T04:39:18.148Z,23.02
2019-05-21T04:39:43.345Z,23.03
2019-05-21T04:40:08.576Z,23.03
2019-05-21T04:40:33.227Z,23.03
2019-05-21T04:40:58.582Z,23.03
2019-05-21T04:41:23.786Z,23.05
2019-05-21T04:41:50.446Z,23.03
2019-05-21T04:42:15.158Z,23.05
2019-05-21T04:42:40.356Z,23.05
2019-05-21T04:43:05.563Z,23.05
2019-05-21T04:43:30.760Z,23.05
2019-05-21T04:43:55.443Z,23.05
2019-05-21T04:44:20.641Z,23.05
2019-05-21T04:44:45.875Z,23.06
2019-05-21T04:45:11.148Z,23.05
2019-05-21T04:45:36.426Z,23.06
2019-05-21T04:46:01.101Z,23.06
2019-05-21T04:46:26.317Z,23.07
2019-05-21T04:46:52.669Z,23.06
2019-05-21T04:47:17.891Z,23.06
2019-05-21T04:47:42.557Z,23.07
2019-05-21T04:48:07.833Z,23.06
2019-05-21T04:48:32.996Z,23.06
2019-05-21T04:48:58.208Z,23.07
2019-05-21T04:49:23.372Z,23.07
2019-05-21T04:49:48.026Z,23.07
2019-05-21T04:50:13.254Z,23.06
2019-05-21T04:50:38.442Z,23.07
2019-05-21T04:51:03.737Z,23.07
2019-05-21T04:51:28.362Z,23.07
2019-05-21T04:51:53.550Z,23.07
2019-05-21T04:52:18.754Z,23.07
2019-05-21T04:52:43.958Z,23.07
2019-05-21T04:53:09.164Z,23.07
2019-05-21T04:53:33.801Z,23.07
2019-05-21T04:53:58.982Z,23.08
2019-05-21T04:54:24.208Z,23.08
2019-05-21T04:54:49.498Z,23.09
2019-05-21T04:55:14.675Z,23.09
2019-05-21T04:55:39.362Z,23.09
2019-05-21T04:56:04.581Z,23.10
2019-05-21T04:56:29.800Z,23.10
2019-05-21T04:56:55.075Z,23.09
2019-05-21T04:57:20.408Z,23.10
2019-05-21T04:57:45.044Z,23.09
2019-05-21T04:58:10.248Z,23.09
2019-05-21T04:58:35.456Z,23.08
2019-05-21T04:59:00.695Z,23.10
2019-05-21T04:59:25.414Z,23.10
2019-05-21T04:59:50.695Z,23.09
2019-05-21T05:00:15.919Z,23.09
2019-05-21T05:00:41.212Z,23.09
2019-05-21T05:01:06.414Z,23.10
2019-05-21T05:01:31.084Z,23.09
2019-05-21T05:01:56.369Z,23.09
2019-05-21T05:02:21.590Z,23.08
2019-05-21T05:02:46.793Z,23.08
2019-05-21T05:03:11.590Z,23.09
2019-05-21T05:03:36.896Z,23.08
2019-05-21T05:04:02.188Z,23.08
2019-05-21T05:04:27.368Z,23.09
2019-05-21T05:04:52.599Z,23.08
2019-05-21T05:05:17.252Z,23.07
2019-05-21T05:05:42.480Z,23.07
2019-05-21T05:06:07.745Z,23.09
2019-05-21T05:06:32.929Z,23.08
2019-05-21T05:06:58.136Z,23.08
2019-05-21T05:07:28.329Z,23.08
2019-05-21T05:07:49.707Z,23.07
2019-05-21T05:08:14.935Z,23.08
2019-05-21T05:08:40.148Z,23.07
2019-05-21T05:09:06.256Z,23.07
2019-05-21T05:09:31.489Z,23.08
2019-05-21T05:09:56.833Z,23.07
2019-05-21T05:10:23.494Z,23.07
2019-05-21T05:10:49.390Z,23.07
2019-05-21T05:11:14.901Z,23.06
2019-05-21T05:11:39.915Z,23.07
2019-05-21T05:12:05.122Z,23.07
2019-05-21T05:12:29.780Z,23.07
2019-05-21T05:12:54.997Z,23.07
2019-05-21T05:13:20.225Z,23.07
2019-05-21T05:13:45.429Z,23.08
2019-05-21T05:14:10.708Z,23.08
2019-05-21T05:14:35.325Z,23.09
2019-05-21T05:15:01.426Z,23.09
2019-05-21T05:15:26.617Z,23.09
2019-05-21T05:15:51.905Z,23.09
2019-05-21T05:16:16.624Z,23.09
2019-05-21T05:16:41.818Z,23.09
2019-05-21T05:17:07.021Z,23.09
2019-05-21T05:17:32.271Z,23.10
2019-05-21T05:17:57.461Z,23.10
2019-05-21T05:18:22.169Z,23.11
2019-05-21T05:18:47.379Z,23.11
2019-05-21T05:19:12.793Z,23.12
2019-05-21T05:19:38.071Z,23.12
2019-05-21T05:20:03.301Z,23.12
2019-05-21T05:20:27.962Z,23.13
2019-05-21T05:20:53.201Z,23.13
2019-05-21T05:21:18.439Z,23.13
2019-05-21T05:21:43.737Z,23.13
2019-05-21T05:22:08.414Z,23.14
2019-05-21T05:22:33.689Z,23.14
2019-05-21T05:22:58.898Z,23.14
2019-05-21T05:23:24.082Z,23.14
2019-05-21T05:23:49.285Z,23.14
2019-05-21T05:24:14.069Z,23.14
2019-05-21T05:24:39.308Z,23.15
2019-05-21T05:25:25.076Z,23.14
2019-05-21T05:25:50.283Z,23.14
2019-05-21T05:26:14.950Z,23.14
2019-05-21T05:26:40.381Z,23.13
2019-05-21T05:27:05.670Z,23.15
2019-05-21T05:27:30.982Z,23.15
2019-05-21T05:27:55.700Z,23.14
2019-05-21T05:28:20.940Z,23.15
2019-05-21T05:28:46.345Z,23.14
2019-05-21T05:29:11.662Z,23.14
2019-05-21T05:29:36.279Z,23.14
2019-05-21T05:30:01.565Z,23.14
2019-05-21T05:30:26.787Z,23.14
2019-05-21T05:30:52.099Z,23.15
2019-05-21T05:31:17.308Z,23.15
2019-05-21T05:31:42.743Z,23.13
2019-05-21T05:32:08.642Z,23.13
2019-05-21T05:32:33.960Z,23.14
2019-05-21T05:32:59.199Z,23.15
2019-05-21T05:33:24.027Z,23.14
2019-05-21T05:33:49.241Z,23.13
2019-05-21T05:34:14.795Z,23.13
2019-05-21T05:34:40.008Z,23.12
2019-05-21T05:35:06.297Z,23.14
2019-05-21T05:35:31.514Z,23.13
2019-05-21T05:35:56.718Z,23.13
2019-05-21T05:36:21.950Z,23.14
2019-05-21T05:36:47.201Z,23.13
2019-05-21T05:37:11.853Z,23.13